sensor_id;sensor_type;location;lat;lon;timestamp;P1;durP1;ratioP1;P2;durP2;ratioP2
10410;SDS011;5251;52.112;8.606;2023-03-04T00:02:17;8.43;;;2.83;;
10410;SDS011;5251;52.112;8.606;2023-03-04T00:04:42;11.38;;;3.13;;
10410;SDS011;5251;52.112;8.606;2023-03-04T00:07:08;13.20;;;3.42;;
10410;SDS011;5251;52.112;8.606;2023-03-04T00:09:33;13.73;;;3.63;;
10410;SDS011;5251;52.112;8.606;2023-03-04T00:11:59;13.25;;;3.22;;
10410;SDS011;5251;52.112;8.606;2023-03-04T00:14:24;14.73;;;3.10;;
10410;SDS011;5251;52.112;8.606;2023-03-04T00:16:50;12.50;;;3.45;;
10410;SDS011;5251;52.112;8.606;2023-03-04T00:19:16;15.65;;;3.17;;
10410;SDS011;5251;52.112;8.606;2023-03-04T00:21:41;11.85;;;3.00;;
10410;SDS011;5251;52.112;8.606;2023-03-04T00:24:07;10.77;;;3.13;;
10410;SDS011;5251;52.112;8.606;2023-03-04T00:26:32;9.82;;;3.40;;
10410;SDS011;5251;52.112;8.606;2023-03-04T00:28:58;9.60;;;3.63;;
10410;SDS011;5251;52.112;8.606;2023-03-04T00:31:23;12.98;;;2.95;;
10410;SDS011;5251;52.112;8.606;2023-03-04T00:33:49;10.68;;;3.15;;
10410;SDS011;5251;52.112;8.606;2023-03-04T00:36:15;11.10;;;3.55;;
10410;SDS011;5251;52.112;8.606;2023-03-04T00:38:40;14.93;;;3.50;;
10410;SDS011;5251;52.112;8.606;2023-03-04T00:41:06;11.52;;;3.38;;
10410;SDS011;5251;52.112;8.606;2023-03-04T00:43:31;9.95;;;3.03;;
10410;SDS011;5251;52.112;8.606;2023-03-04T00:45:57;9.75;;;2.67;;
10410;SDS011;5251;52.112;8.606;2023-03-04T00:48:23;12.32;;;3.15;;
10410;SDS011;5251;52.112;8.606;2023-03-04T00:50:49;13.18;;;3.35;;
10410;SDS011;5251;52.112;8.606;2023-03-04T00:53:17;10.55;;;3.50;;
10410;SDS011;5251;52.112;8.606;2023-03-04T00:55:43;13.20;;;3.03;;
10410;SDS011;5251;52.112;8.606;2023-03-04T00:58:08;10.05;;;3.00;;
10410;SDS011;5251;52.112;8.606;2023-03-04T01:00:34;10.75;;;2.90;;
10410;SDS011;5251;52.112;8.606;2023-03-04T01:03:00;12.73;;;3.05;;
10410;SDS011;5251;52.112;8.606;2023-03-04T01:05:25;13.52;;;3.28;;
10410;SDS011;5251;52.112;8.606;2023-03-04T01:07:51;10.77;;;3.00;;
10410;SDS011;5251;52.112;8.606;2023-03-04T01:10:17;10.20;;;3.10;;
10410;SDS011;5251;52.112;8.606;2023-03-04T01:12:43;10.57;;;2.47;;
10410;SDS011;5251;52.112;8.606;2023-03-04T01:15:10;8.00;;;2.88;;
10410;SDS011;5251;52.112;8.606;2023-03-04T01:17:37;9.35;;;2.95;;
10410;SDS011;5251;52.112;8.606;2023-03-04T01:20:04;11.88;;;2.85;;
10410;SDS011;5251;52.112;8.606;2023-03-04T01:22:31;16.58;;;3.20;;
10410;SDS011;5251;52.112;8.606;2023-03-04T01:24:56;11.02;;;2.72;;
10410;SDS011;5251;52.112;8.606;2023-03-04T01:27:22;9.48;;;2.30;;
10410;SDS011;5251;52.112;8.606;2023-03-04T01:29:48;13.82;;;3.28;;
10410;SDS011;5251;52.112;8.606;2023-03-04T01:32:13;8.40;;;2.63;;
10410;SDS011;5251;52.112;8.606;2023-03-04T01:34:39;11.05;;;2.80;;
10410;SDS011;5251;52.112;8.606;2023-03-04T01:37:04;9.35;;;2.85;;
10410;SDS011;5251;52.112;8.606;2023-03-04T01:39:30;11.57;;;2.88;;
10410;SDS011;5251;52.112;8.606;2023-03-04T01:41:56;10.10;;;2.50;;
10410;SDS011;5251;52.112;8.606;2023-03-04T01:44:22;8.80;;;2.55;;
10410;SDS011;5251;52.112;8.606;2023-03-04T01:46:49;7.43;;;2.58;;
10410;SDS011;5251;52.112;8.606;2023-03-04T01:49:16;9.00;;;2.28;;
10410;SDS011;5251;52.112;8.606;2023-03-04T01:51:43;7.93;;;2.47;;
10410;SDS011;5251;52.112;8.606;2023-03-04T01:54:13;8.30;;;2.88;;
10410;SDS011;5251;52.112;8.606;2023-03-04T01:56:39;8.60;;;2.95;;
10410;SDS011;5251;52.112;8.606;2023-03-04T02:01:40;6.55;;;2.17;;
10410;SDS011;5251;52.112;8.606;2023-03-04T02:04:08;7.93;;;2.70;;
10410;SDS011;5251;52.112;8.606;2023-03-04T02:06:36;6.25;;;2.42;;
10410;SDS011;5251;52.112;8.606;2023-03-04T02:09:03;11.57;;;2.53;;
10410;SDS011;5251;52.112;8.606;2023-03-04T02:11:30;11.40;;;2.50;;
10410;SDS011;5251;52.112;8.606;2023-03-04T02:13:57;9.02;;;3.00;;
10410;SDS011;5251;52.112;8.606;2023-03-04T02:16:23;9.98;;;2.60;;
10410;SDS011;5251;52.112;8.606;2023-03-04T02:18:48;9.82;;;2.65;;
10410;SDS011;5251;52.112;8.606;2023-03-04T02:21:18;7.65;;;2.17;;
10410;SDS011;5251;52.112;8.606;2023-03-04T02:26:25;7.63;;;2.55;;
10410;SDS011;5251;52.112;8.606;2023-03-04T02:28:53;9.55;;;2.40;;
10410;SDS011;5251;52.112;8.606;2023-03-04T02:31:30;11.18;;;2.50;;
10410;SDS011;5251;52.112;8.606;2023-03-04T02:33:59;8.07;;;2.10;;
10410;SDS011;5251;52.112;8.606;2023-03-04T02:36:27;8.82;;;2.65;;
10410;SDS011;5251;52.112;8.606;2023-03-04T02:38:54;6.05;;;1.98;;
10410;SDS011;5251;52.112;8.606;2023-03-04T02:41:24;7.30;;;2.28;;
10410;SDS011;5251;52.112;8.606;2023-03-04T02:43:53;11.18;;;2.80;;
10410;SDS011;5251;52.112;8.606;2023-03-04T02:46:20;13.75;;;2.95;;
10410;SDS011;5251;52.112;8.606;2023-03-04T02:48:46;6.38;;;1.95;;
10410;SDS011;5251;52.112;8.606;2023-03-04T02:51:11;9.35;;;2.47;;
10410;SDS011;5251;52.112;8.606;2023-03-04T02:53:37;6.38;;;1.98;;
10410;SDS011;5251;52.112;8.606;2023-03-04T02:56:02;9.40;;;2.28;;
10410;SDS011;5251;52.112;8.606;2023-03-04T02:58:28;10.65;;;2.20;;
10410;SDS011;5251;52.112;8.606;2023-03-04T03:00:54;6.22;;;2.10;;
10410;SDS011;5251;52.112;8.606;2023-03-04T03:03:20;7.07;;;2.22;;
10410;SDS011;5251;52.112;8.606;2023-03-04T03:05:45;9.30;;;2.53;;
10410;SDS011;5251;52.112;8.606;2023-03-04T03:08:11;9.15;;;2.55;;
10410;SDS011;5251;52.112;8.606;2023-03-04T03:10:36;8.68;;;2.90;;
10410;SDS011;5251;52.112;8.606;2023-03-04T03:13:02;8.50;;;2.50;;
10410;SDS011;5251;52.112;8.606;2023-03-04T03:15:28;9.57;;;2.60;;
10410;SDS011;5251;52.112;8.606;2023-03-04T03:17:54;10.10;;;2.53;;
10410;SDS011;5251;52.112;8.606;2023-03-04T03:20:19;7.38;;;2.28;;
10410;SDS011;5251;52.112;8.606;2023-03-04T03:22:45;7.93;;;2.17;;
10410;SDS011;5251;52.112;8.606;2023-03-04T03:25:12;7.05;;;2.13;;
10410;SDS011;5251;52.112;8.606;2023-03-04T03:27:39;8.38;;;2.25;;
10410;SDS011;5251;52.112;8.606;2023-03-04T03:30:05;7.50;;;2.08;;
10410;SDS011;5251;52.112;8.606;2023-03-04T03:32:32;7.75;;;2.55;;
10410;SDS011;5251;52.112;8.606;2023-03-04T03:34:57;11.80;;;2.90;;
10410;SDS011;5251;52.112;8.606;2023-03-04T03:37:23;8.57;;;2.10;;
10410;SDS011;5251;52.112;8.606;2023-03-04T03:39:49;9.38;;;2.33;;
10410;SDS011;5251;52.112;8.606;2023-03-04T03:42:14;9.57;;;2.22;;
10410;SDS011;5251;52.112;8.606;2023-03-04T03:44:40;6.20;;;2.63;;
10410;SDS011;5251;52.112;8.606;2023-03-04T03:47:06;7.30;;;1.95;;
10410;SDS011;5251;52.112;8.606;2023-03-04T03:49:31;4.68;;;1.67;;
10410;SDS011;5251;52.112;8.606;2023-03-04T03:51:57;9.13;;;2.42;;
10410;SDS011;5251;52.112;8.606;2023-03-04T03:54:22;6.95;;;1.98;;
10410;SDS011;5251;52.112;8.606;2023-03-04T03:56:48;5.75;;;1.83;;
10410;SDS011;5251;52.112;8.606;2023-03-04T03:59:13;6.93;;;2.15;;
10410;SDS011;5251;52.112;8.606;2023-03-04T04:01:39;7.00;;;1.77;;
10410;SDS011;5251;52.112;8.606;2023-03-04T04:04:05;9.15;;;2.15;;
10410;SDS011;5251;52.112;8.606;2023-03-04T04:06:30;6.15;;;1.73;;
10410;SDS011;5251;52.112;8.606;2023-03-04T04:08:56;10.40;;;1.92;;
10410;SDS011;5251;52.112;8.606;2023-03-04T04:11:22;6.47;;;1.98;;
10410;SDS011;5251;52.112;8.606;2023-03-04T04:13:47;4.28;;;1.55;;
10410;SDS011;5251;52.112;8.606;2023-03-04T04:16:13;6.78;;;2.30;;
10410;SDS011;5251;52.112;8.606;2023-03-04T04:18:38;6.40;;;1.92;;
10410;SDS011;5251;52.112;8.606;2023-03-04T04:21:04;5.57;;;1.80;;
10410;SDS011;5251;52.112;8.606;2023-03-04T04:23:30;6.57;;;2.17;;
10410;SDS011;5251;52.112;8.606;2023-03-04T04:25:56;5.40;;;1.77;;
10410;SDS011;5251;52.112;8.606;2023-03-04T04:28:22;3.88;;;1.55;;
10410;SDS011;5251;52.112;8.606;2023-03-04T04:30:48;6.47;;;1.90;;
10410;SDS011;5251;52.112;8.606;2023-03-04T04:33:14;7.53;;;2.35;;
10410;SDS011;5251;52.112;8.606;2023-03-04T04:35:39;4.63;;;1.80;;
10410;SDS011;5251;52.112;8.606;2023-03-04T04:38:07;6.35;;;1.75;;
10410;SDS011;5251;52.112;8.606;2023-03-04T04:40:34;9.50;;;2.47;;
10410;SDS011;5251;52.112;8.606;2023-03-04T04:43:00;8.40;;;1.75;;
10410;SDS011;5251;52.112;8.606;2023-03-04T04:45:25;5.30;;;1.90;;
10410;SDS011;5251;52.112;8.606;2023-03-04T04:47:52;4.55;;;1.52;;
10410;SDS011;5251;52.112;8.606;2023-03-04T04:50:19;6.80;;;1.77;;
10410;SDS011;5251;52.112;8.606;2023-03-04T04:52:45;5.00;;;2.03;;
10410;SDS011;5251;52.112;8.606;2023-03-04T04:55:11;7.88;;;2.55;;
10410;SDS011;5251;52.112;8.606;2023-03-04T04:57:36;6.00;;;1.75;;
10410;SDS011;5251;52.112;8.606;2023-03-04T05:00:05;6.45;;;1.75;;
10410;SDS011;5251;52.112;8.606;2023-03-04T05:02:31;8.55;;;2.15;;
10410;SDS011;5251;52.112;8.606;2023-03-04T05:05:01;7.72;;;2.10;;
10410;SDS011;5251;52.112;8.606;2023-03-04T05:07:27;6.15;;;1.75;;
10410;SDS011;5251;52.112;8.606;2023-03-04T05:09:52;6.25;;;1.73;;
10410;SDS011;5251;52.112;8.606;2023-03-04T05:12:18;6.38;;;1.90;;
10410;SDS011;5251;52.112;8.606;2023-03-04T05:14:44;10.20;;;2.13;;
10410;SDS011;5251;52.112;8.606;2023-03-04T05:17:09;5.75;;;1.73;;
10410;SDS011;5251;52.112;8.606;2023-03-04T05:19:35;6.95;;;2.25;;
10410;SDS011;5251;52.112;8.606;2023-03-04T05:22:00;6.53;;;1.95;;
10410;SDS011;5251;52.112;8.606;2023-03-04T05:24:26;6.40;;;2.15;;
10410;SDS011;5251;52.112;8.606;2023-03-04T05:26:51;7.85;;;2.13;;
10410;SDS011;5251;52.112;8.606;2023-03-04T05:29:17;6.03;;;1.90;;
10410;SDS011;5251;52.112;8.606;2023-03-04T05:31:43;5.75;;;2.15;;
10410;SDS011;5251;52.112;8.606;2023-03-04T05:34:08;9.25;;;2.70;;
10410;SDS011;5251;52.112;8.606;2023-03-04T05:36:34;7.93;;;2.47;;
10410;SDS011;5251;52.112;8.606;2023-03-04T05:38:59;7.05;;;1.95;;
10410;SDS011;5251;52.112;8.606;2023-03-04T05:41:25;7.57;;;2.30;;
10410;SDS011;5251;52.112;8.606;2023-03-04T05:43:51;7.80;;;2.05;;
10410;SDS011;5251;52.112;8.606;2023-03-04T05:46:17;8.90;;;2.15;;
10410;SDS011;5251;52.112;8.606;2023-03-04T05:48:49;6.80;;;1.70;;
10410;SDS011;5251;52.112;8.606;2023-03-04T05:51:15;6.72;;;1.80;;
10410;SDS011;5251;52.112;8.606;2023-03-04T05:53:40;4.53;;;1.70;;
10410;SDS011;5251;52.112;8.606;2023-03-04T05:56:07;9.00;;;1.80;;
10410;SDS011;5251;52.112;8.606;2023-03-04T05:58:34;4.60;;;2.10;;
10410;SDS011;5251;52.112;8.606;2023-03-04T06:00:59;6.80;;;2.05;;
10410;SDS011;5251;52.112;8.606;2023-03-04T06:03:25;5.65;;;2.00;;
10410;SDS011;5251;52.112;8.606;2023-03-04T06:05:50;7.70;;;1.90;;
10410;SDS011;5251;52.112;8.606;2023-03-04T06:08:17;5.40;;;1.75;;
10410;SDS011;5251;52.112;8.606;2023-03-04T06:10:42;4.13;;;1.50;;
10410;SDS011;5251;52.112;8.606;2023-03-04T06:13:08;6.47;;;1.73;;
10410;SDS011;5251;52.112;8.606;2023-03-04T06:15:34;5.05;;;2.10;;
10410;SDS011;5251;52.112;8.606;2023-03-04T06:18:00;9.32;;;1.80;;
10410;SDS011;5251;52.112;8.606;2023-03-04T06:20:25;10.93;;;2.00;;
10410;SDS011;5251;52.112;8.606;2023-03-04T06:22:51;7.85;;;1.95;;
10410;SDS011;5251;52.112;8.606;2023-03-04T06:25:17;6.55;;;1.60;;
10410;SDS011;5251;52.112;8.606;2023-03-04T06:27:43;4.90;;;2.05;;
10410;SDS011;5251;52.112;8.606;2023-03-04T06:30:08;10.02;;;2.00;;
10410;SDS011;5251;52.112;8.606;2023-03-04T06:32:34;8.05;;;1.85;;
10410;SDS011;5251;52.112;8.606;2023-03-04T06:35:00;6.32;;;1.90;;
10410;SDS011;5251;52.112;8.606;2023-03-04T06:37:26;4.65;;;2.53;;
10410;SDS011;5251;52.112;8.606;2023-03-04T06:39:51;6.47;;;3.20;;
10410;SDS011;5251;52.112;8.606;2023-03-04T06:42:17;10.80;;;2.78;;
10410;SDS011;5251;52.112;8.606;2023-03-04T06:44:43;6.10;;;2.35;;
10410;SDS011;5251;52.112;8.606;2023-03-04T06:47:09;4.65;;;1.92;;
10410;SDS011;5251;52.112;8.606;2023-03-04T06:49:34;8.32;;;1.90;;
10410;SDS011;5251;52.112;8.606;2023-03-04T06:52:00;4.50;;;1.73;;
10410;SDS011;5251;52.112;8.606;2023-03-04T06:54:26;7.93;;;2.30;;
10410;SDS011;5251;52.112;8.606;2023-03-04T06:56:51;4.43;;;1.70;;
10410;SDS011;5251;52.112;8.606;2023-03-04T06:59:17;6.90;;;1.90;;
10410;SDS011;5251;52.112;8.606;2023-03-04T07:01:42;3.60;;;1.92;;
10410;SDS011;5251;52.112;8.606;2023-03-04T07:04:08;4.25;;;1.90;;
10410;SDS011;5251;52.112;8.606;2023-03-04T07:06:34;6.15;;;1.77;;
10410;SDS011;5251;52.112;8.606;2023-03-04T07:08:59;7.20;;;2.17;;
10410;SDS011;5251;52.112;8.606;2023-03-04T07:11:25;6.63;;;1.92;;
10410;SDS011;5251;52.112;8.606;2023-03-04T07:13:51;7.78;;;2.10;;
10410;SDS011;5251;52.112;8.606;2023-03-04T07:16:18;4.22;;;1.50;;
10410;SDS011;5251;52.112;8.606;2023-03-04T07:18:45;7.30;;;2.00;;
10410;SDS011;5251;52.112;8.606;2023-03-04T07:21:11;4.38;;;1.83;;
10410;SDS011;5251;52.112;8.606;2023-03-04T07:23:38;5.60;;;1.90;;
10410;SDS011;5251;52.112;8.606;2023-03-04T07:26:04;8.02;;;1.95;;
10410;SDS011;5251;52.112;8.606;2023-03-04T07:28:30;5.43;;;1.50;;
10410;SDS011;5251;52.112;8.606;2023-03-04T07:30:56;6.15;;;1.80;;
10410;SDS011;5251;52.112;8.606;2023-03-04T07:33:31;5.47;;;1.70;;
10410;SDS011;5251;52.112;8.606;2023-03-04T07:35:57;5.80;;;1.70;;
10410;SDS011;5251;52.112;8.606;2023-03-04T07:38:24;5.72;;;1.77;;
10410;SDS011;5251;52.112;8.606;2023-03-04T07:40:56;5.25;;;1.60;;
10410;SDS011;5251;52.112;8.606;2023-03-04T07:43:22;4.75;;;1.85;;
10410;SDS011;5251;52.112;8.606;2023-03-04T07:45:48;4.35;;;1.63;;
10410;SDS011;5251;52.112;8.606;2023-03-04T07:48:13;4.80;;;1.40;;
10410;SDS011;5251;52.112;8.606;2023-03-04T07:50:39;4.32;;;1.80;;
10410;SDS011;5251;52.112;8.606;2023-03-04T07:53:04;5.45;;;1.60;;
10410;SDS011;5251;52.112;8.606;2023-03-04T07:55:30;8.13;;;1.85;;
10410;SDS011;5251;52.112;8.606;2023-03-04T07:57:55;3.15;;;1.60;;
10410;SDS011;5251;52.112;8.606;2023-03-04T08:00:21;5.90;;;2.00;;
10410;SDS011;5251;52.112;8.606;2023-03-04T08:02:47;5.00;;;1.60;;
10410;SDS011;5251;52.112;8.606;2023-03-04T08:05:13;3.38;;;1.60;;
10410;SDS011;5251;52.112;8.606;2023-03-04T08:07:39;4.63;;;1.67;;
10410;SDS011;5251;52.112;8.606;2023-03-04T08:10:05;5.72;;;1.90;;
10410;SDS011;5251;52.112;8.606;2023-03-04T08:12:32;4.43;;;1.52;;
10410;SDS011;5251;52.112;8.606;2023-03-04T08:14:59;4.93;;;1.67;;
10410;SDS011;5251;52.112;8.606;2023-03-04T08:17:24;6.95;;;2.15;;
10410;SDS011;5251;52.112;8.606;2023-03-04T08:19:50;5.97;;;2.22;;
10410;SDS011;5251;52.112;8.606;2023-03-04T08:22:15;5.65;;;3.20;;
10410;SDS011;5251;52.112;8.606;2023-03-04T08:24:41;6.93;;;3.20;;
10410;SDS011;5251;52.112;8.606;2023-03-04T08:27:07;7.13;;;2.75;;
10410;SDS011;5251;52.112;8.606;2023-03-04T08:29:32;8.73;;;2.97;;
10410;SDS011;5251;52.112;8.606;2023-03-04T08:31:58;6.75;;;2.35;;
10410;SDS011;5251;52.112;8.606;2023-03-04T08:34:24;4.00;;;2.20;;
10410;SDS011;5251;52.112;8.606;2023-03-04T08:36:51;5.25;;;2.42;;
10410;SDS011;5251;52.112;8.606;2023-03-04T08:39:17;6.63;;;2.25;;
10410;SDS011;5251;52.112;8.606;2023-03-04T08:41:43;5.07;;;2.50;;
10410;SDS011;5251;52.112;8.606;2023-03-04T08:44:10;4.75;;;2.42;;
10410;SDS011;5251;52.112;8.606;2023-03-04T08:46:36;6.07;;;2.70;;
10410;SDS011;5251;52.112;8.606;2023-03-04T08:49:03;6.35;;;2.33;;
10410;SDS011;5251;52.112;8.606;2023-03-04T08:51:29;5.72;;;2.78;;
10410;SDS011;5251;52.112;8.606;2023-03-04T08:53:55;5.90;;;2.60;;
10410;SDS011;5251;52.112;8.606;2023-03-04T08:56:20;5.38;;;2.30;;
10410;SDS011;5251;52.112;8.606;2023-03-04T08:58:46;5.25;;;2.15;;
10410;SDS011;5251;52.112;8.606;2023-03-04T09:01:12;3.97;;;2.17;;
10410;SDS011;5251;52.112;8.606;2023-03-04T09:03:39;4.90;;;2.00;;
10410;SDS011;5251;52.112;8.606;2023-03-04T09:06:05;4.57;;;1.95;;
10410;SDS011;5251;52.112;8.606;2023-03-04T09:08:32;6.80;;;2.90;;
10410;SDS011;5251;52.112;8.606;2023-03-04T09:10:58;5.35;;;2.20;;
10410;SDS011;5251;52.112;8.606;2023-03-04T09:13:25;3.70;;;1.90;;
10410;SDS011;5251;52.112;8.606;2023-03-04T09:15:53;6.10;;;2.63;;
10410;SDS011;5251;52.112;8.606;2023-03-04T09:18:19;5.13;;;2.17;;
10410;SDS011;5251;52.112;8.606;2023-03-04T09:20:46;6.00;;;2.60;;
10410;SDS011;5251;52.112;8.606;2023-03-04T09:23:13;6.20;;;2.72;;
10410;SDS011;5251;52.112;8.606;2023-03-04T09:25:39;4.15;;;2.45;;
10410;SDS011;5251;52.112;8.606;2023-03-04T09:28:06;5.13;;;2.85;;
10410;SDS011;5251;52.112;8.606;2023-03-04T09:30:32;6.90;;;3.40;;
10410;SDS011;5251;52.112;8.606;2023-03-04T09:32:58;3.83;;;2.70;;
10410;SDS011;5251;52.112;8.606;2023-03-04T09:35:24;6.93;;;2.70;;
10410;SDS011;5251;52.112;8.606;2023-03-04T09:37:50;5.47;;;3.10;;
10410;SDS011;5251;52.112;8.606;2023-03-04T09:40:18;3.95;;;2.60;;
10410;SDS011;5251;52.112;8.606;2023-03-04T09:42:54;4.10;;;2.80;;
10410;SDS011;5251;52.112;8.606;2023-03-04T09:45:30;4.85;;;2.65;;
10410;SDS011;5251;52.112;8.606;2023-03-04T09:48:03;4.03;;;2.70;;
10410;SDS011;5251;52.112;8.606;2023-03-04T09:50:32;4.97;;;2.72;;
10410;SDS011;5251;52.112;8.606;2023-03-04T09:55:40;5.63;;;3.50;;
10410;SDS011;5251;52.112;8.606;2023-03-04T10:04:00;4.63;;;2.97;;
10410;SDS011;5251;52.112;8.606;2023-03-04T10:06:36;3.65;;;2.40;;
10410;SDS011;5251;52.112;8.606;2023-03-04T10:11:36;3.60;;;2.50;;
10410;SDS011;5251;52.112;8.606;2023-03-04T10:16:51;3.13;;;2.22;;
10410;SDS011;5251;52.112;8.606;2023-03-04T10:22:09;2.58;;;1.73;;
10410;SDS011;5251;52.112;8.606;2023-03-04T10:24:41;3.05;;;1.90;;
10410;SDS011;5251;52.112;8.606;2023-03-04T10:27:11;2.38;;;1.63;;
10410;SDS011;5251;52.112;8.606;2023-03-04T10:29:39;1.70;;;1.60;;
10410;SDS011;5251;52.112;8.606;2023-03-04T10:32:07;1.90;;;1.70;;
10410;SDS011;5251;52.112;8.606;2023-03-04T10:34:39;2.72;;;1.95;;
10410;SDS011;5251;52.112;8.606;2023-03-04T10:37:05;1.75;;;1.65;;
10410;SDS011;5251;52.112;8.606;2023-03-04T10:39:43;2.40;;;1.85;;
10410;SDS011;5251;52.112;8.606;2023-03-04T10:44:40;2.15;;;1.92;;
10410;SDS011;5251;52.112;8.606;2023-03-04T10:47:25;2.72;;;1.83;;
10410;SDS011;5251;52.112;8.606;2023-03-04T10:49:56;2.38;;;1.70;;
10410;SDS011;5251;52.112;8.606;2023-03-04T10:52:28;2.10;;;1.90;;
10410;SDS011;5251;52.112;8.606;2023-03-04T10:54:59;2.65;;;1.90;;
10410;SDS011;5251;52.112;8.606;2023-03-04T10:57:37;3.97;;;2.05;;
10410;SDS011;5251;52.112;8.606;2023-03-04T11:03:11;2.95;;;1.50;;
10410;SDS011;5251;52.112;8.606;2023-03-04T11:05:48;3.42;;;1.52;;
10410;SDS011;5251;52.112;8.606;2023-03-04T11:08:17;3.33;;;1.60;;
10410;SDS011;5251;52.112;8.606;2023-03-04T11:10:45;3.40;;;1.60;;
10410;SDS011;5251;52.112;8.606;2023-03-04T11:18:15;2.97;;;1.52;;
10410;SDS011;5251;52.112;8.606;2023-03-04T11:20:44;5.40;;;1.55;;
10410;SDS011;5251;52.112;8.606;2023-03-04T11:23:15;4.18;;;1.60;;
10410;SDS011;5251;52.112;8.606;2023-03-04T11:25:43;5.80;;;1.60;;
10410;SDS011;5251;52.112;8.606;2023-03-04T11:30:52;4.78;;;1.67;;
10410;SDS011;5251;52.112;8.606;2023-03-04T11:35:50;5.70;;;1.80;;
10410;SDS011;5251;52.112;8.606;2023-03-04T11:38:40;3.50;;;1.70;;
10410;SDS011;5251;52.112;8.606;2023-03-04T11:41:19;4.38;;;1.42;;
10410;SDS011;5251;52.112;8.606;2023-03-04T11:43:57;4.00;;;1.48;;
10410;SDS011;5251;52.112;8.606;2023-03-04T11:55:17;5.95;;;1.70;;
10410;SDS011;5251;52.112;8.606;2023-03-04T12:01:18;8.82;;;2.22;;
10410;SDS011;5251;52.112;8.606;2023-03-04T12:04:22;6.35;;;2.22;;
10410;SDS011;5251;52.112;8.606;2023-03-04T12:15:25;4.88;;;1.80;;
10410;SDS011;5251;52.112;8.606;2023-03-04T12:29:44;6.78;;;1.80;;
10410;SDS011;5251;52.112;8.606;2023-03-04T12:34:51;6.22;;;1.90;;
10410;SDS011;5251;52.112;8.606;2023-03-04T12:40:30;6.43;;;2.60;;
10410;SDS011;5251;52.112;8.606;2023-03-04T12:46:03;7.22;;;2.78;;
10410;SDS011;5251;52.112;8.606;2023-03-04T12:49:10;6.10;;;1.73;;
10410;SDS011;5251;52.112;8.606;2023-03-04T12:51:43;6.72;;;1.98;;
10410;SDS011;5251;52.112;8.606;2023-03-04T12:54:31;5.68;;;1.70;;
10410;SDS011;5251;52.112;8.606;2023-03-04T13:02:31;6.07;;;1.42;;
10410;SDS011;5251;52.112;8.606;2023-03-04T13:11:00;3.15;;;1.25;;
10410;SDS011;5251;52.112;8.606;2023-03-04T13:13:44;4.10;;;1.23;;
10410;SDS011;5251;52.112;8.606;2023-03-04T13:16:40;2.15;;;1.10;;
10410;SDS011;5251;52.112;8.606;2023-03-04T13:24:56;3.72;;;1.52;;
10410;SDS011;5251;52.112;8.606;2023-03-04T13:27:43;3.90;;;1.02;;
10410;SDS011;5251;52.112;8.606;2023-03-04T13:51:36;7.22;;;2.08;;
10410;SDS011;5251;52.112;8.606;2023-03-04T13:59:27;3.90;;;1.92;;
10410;SDS011;5251;52.112;8.606;2023-03-04T14:01:58;7.13;;;2.13;;
10410;SDS011;5251;52.112;8.606;2023-03-04T14:04:44;4.82;;;1.73;;
10410;SDS011;5251;52.112;8.606;2023-03-04T14:07:23;6.55;;;1.95;;
10410;SDS011;5251;52.112;8.606;2023-03-04T14:09:53;8.80;;;2.13;;
10410;SDS011;5251;52.112;8.606;2023-03-04T14:12:19;7.00;;;2.30;;
10410;SDS011;5251;52.112;8.606;2023-03-04T14:14:46;6.80;;;2.22;;
10410;SDS011;5251;52.112;8.606;2023-03-04T14:17:19;3.83;;;1.65;;
10410;SDS011;5251;52.112;8.606;2023-03-04T14:19:58;8.20;;;2.00;;
10410;SDS011;5251;52.112;8.606;2023-03-04T14:22:39;3.67;;;1.83;;
10410;SDS011;5251;52.112;8.606;2023-03-04T14:27:43;7.32;;;2.17;;
10410;SDS011;5251;52.112;8.606;2023-03-04T14:30:21;8.50;;;2.22;;
10410;SDS011;5251;52.112;8.606;2023-03-04T14:32:49;6.05;;;1.70;;
10410;SDS011;5251;52.112;8.606;2023-03-04T14:35:27;6.22;;;1.65;;
10410;SDS011;5251;52.112;8.606;2023-03-04T14:40:24;5.80;;;1.70;;
10410;SDS011;5251;52.112;8.606;2023-03-04T14:43:01;5.75;;;2.30;;
10410;SDS011;5251;52.112;8.606;2023-03-04T14:45:41;5.60;;;1.90;;
10410;SDS011;5251;52.112;8.606;2023-03-04T14:48:10;4.72;;;1.58;;
10410;SDS011;5251;52.112;8.606;2023-03-04T14:50:47;6.18;;;1.83;;
10410;SDS011;5251;52.112;8.606;2023-03-04T14:53:17;7.43;;;2.13;;
10410;SDS011;5251;52.112;8.606;2023-03-04T14:55:58;8.48;;;2.03;;
10410;SDS011;5251;52.112;8.606;2023-03-04T14:58:26;8.38;;;2.20;;
10410;SDS011;5251;52.112;8.606;2023-03-04T15:03:37;5.85;;;1.90;;
10410;SDS011;5251;52.112;8.606;2023-03-04T15:06:23;5.45;;;2.05;;
10410;SDS011;5251;52.112;8.606;2023-03-04T15:09:17;6.93;;;1.95;;
10410;SDS011;5251;52.112;8.606;2023-03-04T15:11:51;8.38;;;2.13;;
10410;SDS011;5251;52.112;8.606;2023-03-04T15:14:40;7.13;;;1.73;;
10410;SDS011;5251;52.112;8.606;2023-03-04T15:17:18;5.05;;;1.77;;
10410;SDS011;5251;52.112;8.606;2023-03-04T15:22:30;3.17;;;1.75;;
10410;SDS011;5251;52.112;8.606;2023-03-04T15:24:56;4.63;;;1.70;;
10410;SDS011;5251;52.112;8.606;2023-03-04T15:27:23;3.45;;;1.25;;
10410;SDS011;5251;52.112;8.606;2023-03-04T15:29:50;4.03;;;1.10;;
10410;SDS011;5251;52.112;8.606;2023-03-04T15:32:21;4.43;;;1.58;;
10410;SDS011;5251;52.112;8.606;2023-03-04T15:34:47;5.20;;;1.35;;
10410;SDS011;5251;52.112;8.606;2023-03-04T15:37:23;2.67;;;1.17;;
10410;SDS011;5251;52.112;8.606;2023-03-04T15:39:51;2.72;;;1.25;;
10410;SDS011;5251;52.112;8.606;2023-03-04T15:42:19;3.75;;;1.33;;
10410;SDS011;5251;52.112;8.606;2023-03-04T15:44:45;7.03;;;1.92;;
10410;SDS011;5251;52.112;8.606;2023-03-04T15:47:11;3.63;;;1.45;;
10410;SDS011;5251;52.112;8.606;2023-03-04T15:49:41;4.28;;;1.27;;
10410;SDS011;5251;52.112;8.606;2023-03-04T15:52:18;5.10;;;1.80;;
10410;SDS011;5251;52.112;8.606;2023-03-04T15:54:46;3.38;;;1.48;;
10410;SDS011;5251;52.112;8.606;2023-03-04T15:57:23;4.22;;;1.63;;
10410;SDS011;5251;52.112;8.606;2023-03-04T15:59:50;3.97;;;1.75;;
10410;SDS011;5251;52.112;8.606;2023-03-04T16:02:20;4.05;;;1.45;;
10410;SDS011;5251;52.112;8.606;2023-03-04T16:04:51;5.28;;;2.03;;
10410;SDS011;5251;52.112;8.606;2023-03-04T16:07:18;4.88;;;2.30;;
10410;SDS011;5251;52.112;8.606;2023-03-04T16:09:45;5.40;;;1.70;;
10410;SDS011;5251;52.112;8.606;2023-03-04T16:12:13;5.07;;;1.85;;
10410;SDS011;5251;52.112;8.606;2023-03-04T16:14:38;6.80;;;2.30;;
10410;SDS011;5251;52.112;8.606;2023-03-04T16:17:05;4.07;;;1.80;;
10410;SDS011;5251;52.112;8.606;2023-03-04T16:19:32;5.03;;;1.98;;
10410;SDS011;5251;52.112;8.606;2023-03-04T16:21:57;4.32;;;1.70;;
10410;SDS011;5251;52.112;8.606;2023-03-04T16:24:23;2.97;;;1.52;;
10410;SDS011;5251;52.112;8.606;2023-03-04T16:26:49;6.03;;;1.95;;
10410;SDS011;5251;52.112;8.606;2023-03-04T16:29:14;4.60;;;1.77;;
10410;SDS011;5251;52.112;8.606;2023-03-04T16:31:40;6.88;;;2.00;;
10410;SDS011;5251;52.112;8.606;2023-03-04T16:34:06;7.70;;;2.03;;
10410;SDS011;5251;52.112;8.606;2023-03-04T16:36:31;4.22;;;1.60;;
10410;SDS011;5251;52.112;8.606;2023-03-04T16:39:00;4.22;;;1.40;;
10410;SDS011;5251;52.112;8.606;2023-03-04T16:41:29;6.88;;;2.05;;
10410;SDS011;5251;52.112;8.606;2023-03-04T16:43:57;3.63;;;1.60;;
10410;SDS011;5251;52.112;8.606;2023-03-04T16:46:23;5.18;;;1.77;;
10410;SDS011;5251;52.112;8.606;2023-03-04T16:48:49;8.73;;;1.90;;
10410;SDS011;5251;52.112;8.606;2023-03-04T16:51:23;4.85;;;1.70;;
10410;SDS011;5251;52.112;8.606;2023-03-04T16:53:53;5.18;;;1.77;;
10410;SDS011;5251;52.112;8.606;2023-03-04T16:56:21;6.38;;;1.70;;
10410;SDS011;5251;52.112;8.606;2023-03-04T16:58:47;5.65;;;1.60;;
10410;SDS011;5251;52.112;8.606;2023-03-04T17:01:26;7.03;;;1.85;;
10410;SDS011;5251;52.112;8.606;2023-03-04T17:03:52;7.95;;;1.92;;
10410;SDS011;5251;52.112;8.606;2023-03-04T17:06:19;6.35;;;1.90;;
10410;SDS011;5251;52.112;8.606;2023-03-04T17:08:46;11.52;;;2.05;;
10410;SDS011;5251;52.112;8.606;2023-03-04T17:11:17;7.45;;;1.80;;
10410;SDS011;5251;52.112;8.606;2023-03-04T17:13:44;5.43;;;1.95;;
10410;SDS011;5251;52.112;8.606;2023-03-04T17:16:10;7.00;;;2.05;;
10410;SDS011;5251;52.112;8.606;2023-03-04T17:18:37;6.50;;;1.98;;
10410;SDS011;5251;52.112;8.606;2023-03-04T17:21:07;6.00;;;1.75;;